sensor_id;sensor_type;location;lat;lon;timestamp;temperature;humidity
28520;DHT22;15732;48.534;20.382;2023-08-06T00:00:07;21.00;99.90
28520;DHT22;15732;48.534;20.382;2023-08-06T00:02:34;21.00;99.90
28520;DHT22;15732;48.534;20.382;2023-08-06T00:05:01;20.90;99.90
28520;DHT22;15732;48.534;20.382;2023-08-06T00:07:29;20.90;99.90
28520;DHT22;15732;48.534;20.382;2023-08-06T00:09:57;20.90;99.90
28520;DHT22;15732;48.534;20.382;2023-08-06T00:12:24;20.90;99.90
28520;DHT22;15732;48.534;20.382;2023-08-06T00:14:55;21.00;99.90
28520;DHT22;15732;48.534;20.382;2023-08-06T00:17:22;21.00;99.90
28520;DHT22;15732;48.534;20.382;2023-08-06T00:19:49;20.90;99.90
28520;DHT22;15732;48.534;20.382;2023-08-06T00:22:21;20.90;99.90
28520;DHT22;15732;48.534;20.382;2023-08-06T00:24:52;20.90;99.90
28520;DHT22;15732;48.534;20.382;2023-08-06T00:27:20;20.90;99.90
28520;DHT22;15732;48.534;20.382;2023-08-06T00:29:47;20.90;99.90
28520;DHT22;15732;48.534;20.382;2023-08-06T00:32:14;20.90;99.90
28520;DHT22;15732;48.534;20.382;2023-08-06T00:34:42;20.90;99.90
28520;DHT22;15732;48.534;20.382;2023-08-06T00:37:09;20.90;99.90
28520;DHT22;15732;48.534;20.382;2023-08-06T00:39:36;20.80;99.90
28520;DHT22;15732;48.534;20.382;2023-08-06T00:42:04;20.80;99.90
28520;DHT22;15732;48.534;20.382;2023-08-06T00:44:32;20.80;99.90
28520;DHT22;15732;48.534;20.382;2023-08-06T00:46:59;20.80;99.90
28520;DHT22;15732;48.534;20.382;2023-08-06T00:49:27;20.70;99.90
28520;DHT22;15732;48.534;20.382;2023-08-06T00:51:54;20.70;99.90
28520;DHT22;15732;48.534;20.382;2023-08-06T00:54:21;20.60;99.90
28520;DHT22;15732;48.534;20.382;2023-08-06T00:56:48;20.60;99.90
28520;DHT22;15732;48.534;20.382;2023-08-06T00:59:16;20.60;99.90
28520;DHT22;15732;48.534;20.382;2023-08-06T01:01:43;20.60;99.90
28520;DHT22;15732;48.534;20.382;2023-08-06T01:04:11;20.60;99.90
28520;DHT22;15732;48.534;20.382;2023-08-06T01:06:55;20.60;99.90
28520;DHT22;15732;48.534;20.382;2023-08-06T01:15:16;20.40;99.90
28520;DHT22;15732;48.534;20.382;2023-08-06T01:17:45;20.30;99.90
28520;DHT22;15732;48.534;20.382;2023-08-06T01:20:16;20.30;99.90
28520;DHT22;15732;48.534;20.382;2023-08-06T01:22:47;20.20;99.90
28520;DHT22;15732;48.534;20.382;2023-08-06T01:25:16;20.30;99.90
28520;DHT22;15732;48.534;20.382;2023-08-06T01:27:49;20.30;99.90
28520;DHT22;15732;48.534;20.382;2023-08-06T01:30:26;20.40;99.90
28520;DHT22;15732;48.534;20.382;2023-08-06T01:33:00;20.50;99.90
28520;DHT22;15732;48.534;20.382;2023-08-06T01:35:30;20.50;99.90
28520;DHT22;15732;48.534;20.382;2023-08-06T01:37:57;20.60;99.90
28520;DHT22;15732;48.534;20.382;2023-08-06T01:40:29;20.60;99.90
28520;DHT22;15732;48.534;20.382;2023-08-06T01:42:56;20.60;99.90
28520;DHT22;15732;48.534;20.382;2023-08-06T01:45:24;20.60;99.90
28520;DHT22;15732;48.534;20.382;2023-08-06T01:47:51;20.60;99.90
28520;DHT22;15732;48.534;20.382;2023-08-06T01:50:19;20.60;99.90
28520;DHT22;15732;48.534;20.382;2023-08-06T01:52:46;20.50;99.90
28520;DHT22;15732;48.534;20.382;2023-08-06T01:55:14;20.50;99.90
28520;DHT22;15732;48.534;20.382;2023-08-06T01:57:41;20.40;99.90
28520;DHT22;15732;48.534;20.382;2023-08-06T02:00:10;20.50;99.90
28520;DHT22;15732;48.534;20.382;2023-08-06T02:02:38;20.50;99.90
28520;DHT22;15732;48.534;20.382;2023-08-06T02:05:07;20.50;99.90
28520;DHT22;15732;48.534;20.382;2023-08-06T02:07:33;20.60;99.90
28520;DHT22;15732;48.534;20.382;2023-08-06T02:10:01;20.60;99.90
28520;DHT22;15732;48.534;20.382;2023-08-06T02:12:32;20.60;99.90
28520;DHT22;15732;48.534;20.382;2023-08-06T02:14:59;20.70;99.90
28520;DHT22;15732;48.534;20.382;2023-08-06T02:17:27;20.70;99.90
28520;DHT22;15732;48.534;20.382;2023-08-06T02:19:54;20.70;99.90
28520;DHT22;15732;48.534;20.382;2023-08-06T02:22:21;20.70;99.90
28520;DHT22;15732;48.534;20.382;2023-08-06T02:24:49;20.70;99.90
28520;DHT22;15732;48.534;20.382;2023-08-06T02:27:17;20.60;99.90
28520;DHT22;15732;48.534;20.382;2023-08-06T02:29:48;20.60;99.90
28520;DHT22;15732;48.534;20.382;2023-08-06T02:32:19;20.70;99.90
28520;DHT22;15732;48.534;20.382;2023-08-06T02:34:46;20.70;99.90
28520;DHT22;15732;48.534;20.382;2023-08-06T02:37:14;20.70;99.90
28520;DHT22;15732;48.534;20.382;2023-08-06T02:39:41;20.80;99.90
28520;DHT22;15732;48.534;20.382;2023-08-06T02:42:09;20.70;99.90
28520;DHT22;15732;48.534;20.382;2023-08-06T02:44:37;20.70;99.90
28520;DHT22;15732;48.534;20.382;2023-08-06T02:47:05;20.60;99.90
28520;DHT22;15732;48.534;20.382;2023-08-06T02:49:32;20.60;99.90
28520;DHT22;15732;48.534;20.382;2023-08-06T02:52:00;20.60;99.90
28520;DHT22;15732;48.534;20.382;2023-08-06T02:54:27;20.60;99.90
28520;DHT22;15732;48.534;20.382;2023-08-06T02:56:55;20.60;99.90
28520;DHT22;15732;48.534;20.382;2023-08-06T02:59:22;20.60;99.90
28520;DHT22;15732;48.534;20.382;2023-08-06T03:01:53;20.60;99.90
28520;DHT22;15732;48.534;20.382;2023-08-06T03:04:24;20.60;99.90
28520;DHT22;15732;48.534;20.382;2023-08-06T03:06:51;20.60;99.90
28520;DHT22;15732;48.534;20.382;2023-08-06T03:09:18;20.60;99.90
28520;DHT22;15732;48.534;20.382;2023-08-06T03:11:46;20.60;99.90
28520;DHT22;15732;48.534;20.382;2023-08-06T03:14:16;20.70;99.90
28520;DHT22;15732;48.534;20.382;2023-08-06T03:16:44;20.70;99.90
28520;DHT22;15732;48.534;20.382;2023-08-06T03:19:15;20.70;99.90
28520;DHT22;15732;48.534;20.382;2023-08-06T03:21:42;20.70;99.90
28520;DHT22;15732;48.534;20.382;2023-08-06T03:24:09;20.70;99.90
28520;DHT22;15732;48.534;20.382;2023-08-06T03:26:36;20.70;99.90
28520;DHT22;15732;48.534;20.382;2023-08-06T03:29:04;20.80;99.90
28520;DHT22;15732;48.534;20.382;2023-08-06T03:31:31;20.70;99.90
28520;DHT22;15732;48.534;20.382;2023-08-06T03:33:58;20.70;99.90
28520;DHT22;15732;48.534;20.382;2023-08-06T03:36:25;20.80;99.90
28520;DHT22;15732;48.534;20.382;2023-08-06T03:38:52;20.80;99.90
28520;DHT22;15732;48.534;20.382;2023-08-06T03:41:19;20.80;99.90
28520;DHT22;15732;48.534;20.382;2023-08-06T03:43:47;20.80;99.90
28520;DHT22;15732;48.534;20.382;2023-08-06T03:46:14;20.80;99.90
28520;DHT22;15732;48.534;20.382;2023-08-06T03:48:41;20.80;99.90
28520;DHT22;15732;48.534;20.382;2023-08-06T03:51:09;20.70;99.90
28520;DHT22;15732;48.534;20.382;2023-08-06T03:53:36;20.70;99.90
28520;DHT22;15732;48.534;20.382;2023-08-06T03:56:04;20.70;99.90
28520;DHT22;15732;48.534;20.382;2023-08-06T03:58:31;20.80;99.90
28520;DHT22;15732;48.534;20.382;2023-08-06T04:01:02;20.80;99.90
28520;DHT22;15732;48.534;20.382;2023-08-06T04:03:46;20.70;99.90
28520;DHT22;15732;48.534;20.382;2023-08-06T04:06:13;20.70;99.90
28520;DHT22;15732;48.534;20.382;2023-08-06T04:08:40;20.70;99.90
28520;DHT22;15732;48.534;20.382;2023-08-06T04:11:07;20.70;99.90
28520;DHT22;15732;48.534;20.382;2023-08-06T04:13:34;20.70;99.90
28520;DHT22;15732;48.534;20.382;2023-08-06T04:16:02;20.70;99.90
28520;DHT22;15732;48.534;20.382;2023-08-06T04:18:30;20.70;99.90
28520;DHT22;15732;48.534;20.382;2023-08-06T04:20:57;20.70;99.90
28520;DHT22;15732;48.534;20.382;2023-08-06T04:23:24;20.70;99.90
28520;DHT22;15732;48.534;20.382;2023-08-06T04:25:59;20.70;99.90
28520;DHT22;15732;48.534;20.382;2023-08-06T04:28:26;20.70;99.90
28520;DHT22;15732;48.534;20.382;2023-08-06T04:30:53;20.70;99.90
28520;DHT22;15732;48.534;20.382;2023-08-06T04:33:20;20.70;99.90
28520;DHT22;15732;48.534;20.382;2023-08-06T04:35:47;20.70;99.90
28520;DHT22;15732;48.534;20.382;2023-08-06T04:38:14;20.70;99.90
28520;DHT22;15732;48.534;20.382;2023-08-06T04:40:42;20.70;99.90
28520;DHT22;15732;48.534;20.382;2023-08-06T04:43:09;20.70;99.90
28520;DHT22;15732;48.534;20.382;2023-08-06T04:45:36;20.70;99.90
28520;DHT22;15732;48.534;20.382;2023-08-06T04:48:04;20.70;99.90
28520;DHT22;15732;48.534;20.382;2023-08-06T04:50:31;20.70;99.90
28520;DHT22;15732;48.534;20.382;2023-08-06T04:52:59;20.70;99.90
28520;DHT22;15732;48.534;20.382;2023-08-06T04:55:26;20.70;99.90
28520;DHT22;15732;48.534;20.382;2023-08-06T04:57:53;20.70;99.90
28520;DHT22;15732;48.534;20.382;2023-08-06T05:00:20;20.70;99.90
28520;DHT22;15732;48.534;20.382;2023-08-06T05:02:48;20.60;99.90
28520;DHT22;15732;48.534;20.382;2023-08-06T05:05:15;20.60;99.90
28520;DHT22;15732;48.534;20.382;2023-08-06T05:07:43;20.50;99.90
28520;DHT22;15732;48.534;20.382;2023-08-06T05:10:10;20.60;99.90
28520;DHT22;15732;48.534;20.382;2023-08-06T05:12:37;20.50;99.90
28520;DHT22;15732;48.534;20.382;2023-08-06T05:15:06;20.50;99.90
28520;DHT22;15732;48.534;20.382;2023-08-06T05:17:33;20.50;99.90
28520;DHT22;15732;48.534;20.382;2023-08-06T05:20:00;20.40;99.90
28520;DHT22;15732;48.534;20.382;2023-08-06T05:22:27;20.40;99.90
28520;DHT22;15732;48.534;20.382;2023-08-06T05:24:54;20.40;99.90
28520;DHT22;15732;48.534;20.382;2023-08-06T05:27:21;20.40;99.90
28520;DHT22;15732;48.534;20.382;2023-08-06T05:29:48;20.30;99.90
28520;DHT22;15732;48.534;20.382;2023-08-06T05:32:16;20.30;99.90
28520;DHT22;15732;48.534;20.382;2023-08-06T05:34:43;20.30;99.90
28520;DHT22;15732;48.534;20.382;2023-08-06T05:37:10;20.30;99.90
28520;DHT22;15732;48.534;20.382;2023-08-06T05:39:38;20.20;99.90
28520;DHT22;15732;48.534;20.382;2023-08-06T05:42:09;20.20;99.90
28520;DHT22;15732;48.534;20.382;2023-08-06T05:44:36;20.20;99.90
28520;DHT22;15732;48.534;20.382;2023-08-06T05:47:04;20.10;99.90
28520;DHT22;15732;48.534;20.382;2023-08-06T05:49:31;20.10;99.90
28520;DHT22;15732;48.534;20.382;2023-08-06T05:52:04;20.00;99.90
28520;DHT22;15732;48.534;20.382;2023-08-06T05:54:33;20.00;99.90
28520;DHT22;15732;48.534;20.382;2023-08-06T05:57:00;19.90;99.90
28520;DHT22;15732;48.534;20.382;2023-08-06T05:59:27;19.90;99.90
28520;DHT22;15732;48.534;20.382;2023-08-06T06:01:55;19.90;99.90
28520;DHT22;15732;48.534;20.382;2023-08-06T06:04:22;19.80;99.90
28520;DHT22;15732;48.534;20.382;2023-08-06T06:06:53;19.80;99.90
28520;DHT22;15732;48.534;20.382;2023-08-06T06:09:20;19.90;99.90
28520;DHT22;15732;48.534;20.382;2023-08-06T06:11:47;19.80;99.90
28520;DHT22;15732;48.534;20.382;2023-08-06T06:14:19;19.70;99.90
28520;DHT22;15732;48.534;20.382;2023-08-06T06:16:46;19.60;99.90
28520;DHT22;15732;48.534;20.382;2023-08-06T06:19:17;19.50;99.90
28520;DHT22;15732;48.534;20.382;2023-08-06T06:21:45;19.50;99.90
28520;DHT22;15732;48.534;20.382;2023-08-06T06:24:12;19.50;99.90
28520;DHT22;15732;48.534;20.382;2023-08-06T06:26:44;19.40;99.90
28520;DHT22;15732;48.534;20.382;2023-08-06T06:29:15;19.40;99.90
28520;DHT22;15732;48.534;20.382;2023-08-06T06:31:42;19.40;99.90
28520;DHT22;15732;48.534;20.382;2023-08-06T06:34:09;19.40;99.90
28520;DHT22;15732;48.534;20.382;2023-08-06T06:36:37;19.40;99.90
28520;DHT22;15732;48.534;20.382;2023-08-06T06:39:04;19.40;99.90
28520;DHT22;15732;48.534;20.382;2023-08-06T06:41:31;19.40;99.90
28520;DHT22;15732;48.534;20.382;2023-08-06T06:44:02;19.40;99.90
28520;DHT22;15732;48.534;20.382;2023-08-06T06:46:30;19.30;99.90
28520;DHT22;15732;48.534;20.382;2023-08-06T06:48:57;19.40;99.90
28520;DHT22;15732;48.534;20.382;2023-08-06T06:51:25;19.40;99.90
28520;DHT22;15732;48.534;20.382;2023-08-06T06:53:52;19.50;99.90
28520;DHT22;15732;48.534;20.382;2023-08-06T06:56:19;19.50;99.90
28520;DHT22;15732;48.534;20.382;2023-08-06T06:58:47;19.60;99.90
28520;DHT22;15732;48.534;20.382;2023-08-06T07:01:15;19.70;99.90
28520;DHT22;15732;48.534;20.382;2023-08-06T07:03:42;19.80;99.90
28520;DHT22;15732;48.534;20.382;2023-08-06T07:06:09;19.90;99.90
28520;DHT22;15732;48.534;20.382;2023-08-06T07:08:37;19.90;99.90
28520;DHT22;15732;48.534;20.382;2023-08-06T07:11:06;19.90;99.90
28520;DHT22;15732;48.534;20.382;2023-08-06T07:13:34;20.00;99.90
28520;DHT22;15732;48.534;20.382;2023-08-06T07:16:01;20.10;99.90
28520;DHT22;15732;48.534;20.382;2023-08-06T07:18:28;20.10;99.90
28520;DHT22;15732;48.534;20.382;2023-08-06T07:20:56;20.10;99.90
28520;DHT22;15732;48.534;20.382;2023-08-06T07:23:43;20.10;99.90
28520;DHT22;15732;48.534;20.382;2023-08-06T07:26:10;20.10;99.90
28520;DHT22;15732;48.534;20.382;2023-08-06T07:28:37;20.10;99.90
28520;DHT22;15732;48.534;20.382;2023-08-06T07:31:04;20.20;99.90
28520;DHT22;15732;48.534;20.382;2023-08-06T07:33:32;20.20;99.90
28520;DHT22;15732;48.534;20.382;2023-08-06T07:35:59;20.30;99.90
28520;DHT22;15732;48.534;20.382;2023-08-06T07:38:30;20.30;99.90
28520;DHT22;15732;48.534;20.382;2023-08-06T07:40:57;20.40;99.90
28520;DHT22;15732;48.534;20.382;2023-08-06T07:43:24;20.40;99.90
28520;DHT22;15732;48.534;20.382;2023-08-06T07:45:52;20.40;99.90
28520;DHT22;15732;48.534;20.382;2023-08-06T07:48:19;20.40;99.90
28520;DHT22;15732;48.534;20.382;2023-08-06T08:01:50;20.20;99.90
28520;DHT22;15732;48.534;20.382;2023-08-06T08:04:17;20.20;99.90
28520;DHT22;15732;48.534;20.382;2023-08-06T08:06:45;20.20;99.90
28520;DHT22;15732;48.534;20.382;2023-08-06T08:09:12;20.20;99.90
28520;DHT22;15732;48.534;20.382;2023-08-06T08:11:43;20.30;99.90
28520;DHT22;15732;48.534;20.382;2023-08-06T08:14:11;20.30;99.90
28520;DHT22;15732;48.534;20.382;2023-08-06T08:16:38;20.30;99.90
28520;DHT22;15732;48.534;20.382;2023-08-06T08:19:05;20.30;99.90
28520;DHT22;15732;48.534;20.382;2023-08-06T08:21:33;20.30;99.90
28520;DHT22;15732;48.534;20.382;2023-08-06T08:24:04;20.30;99.90
28520;DHT22;15732;48.534;20.382;2023-08-06T08:26:32;20.30;99.90
28520;DHT22;15732;48.534;20.382;2023-08-06T08:28:59;20.40;99.90
28520;DHT22;15732;48.534;20.382;2023-08-06T08:31:26;20.40;99.90
28520;DHT22;15732;48.534;20.382;2023-08-06T08:33:54;20.50;99.90
28520;DHT22;15732;48.534;20.382;2023-08-06T08:36:21;20.50;99.90
28520;DHT22;15732;48.534;20.382;2023-08-06T08:38:49;20.40;99.90
28520;DHT22;15732;48.534;20.382;2023-08-06T08:41:20;20.40;99.90
28520;DHT22;15732;48.534;20.382;2023-08-06T08:43:50;20.40;99.90
28520;DHT22;15732;48.534;20.382;2023-08-06T08:46:19;20.40;99.90
28520;DHT22;15732;48.534;20.382;2023-08-06T08:48:46;20.40;99.90
28520;DHT22;15732;48.534;20.382;2023-08-06T08:51:13;20.40;99.90
28520;DHT22;15732;48.534;20.382;2023-08-06T08:53:44;20.40;99.90
28520;DHT22;15732;48.534;20.382;2023-08-06T08:56:13;20.40;99.90
28520;DHT22;15732;48.534;20.382;2023-08-06T08:58:41;20.40;99.90
28520;DHT22;15732;48.534;20.382;2023-08-06T09:01:09;20.30;99.90
28520;DHT22;15732;48.534;20.382;2023-08-06T09:03:36;20.30;99.90
28520;DHT22;15732;48.534;20.382;2023-08-06T09:06:03;20.40;99.90
28520;DHT22;15732;48.534;20.382;2023-08-06T09:08:39;20.40;99.90
28520;DHT22;15732;48.534;20.382;2023-08-06T09:11:11;20.40;99.90
28520;DHT22;15732;48.534;20.382;2023-08-06T09:13:39;20.30;99.90
28520;DHT22;15732;48.534;20.382;2023-08-06T09:16:07;20.30;99.90
28520;DHT22;15732;48.534;20.382;2023-08-06T09:18:34;20.30;99.90
28520;DHT22;15732;48.534;20.382;2023-08-06T09:21:01;20.30;99.90
28520;DHT22;15732;48.534;20.382;2023-08-06T09:23:30;20.30;99.90
28520;DHT22;15732;48.534;20.382;2023-08-06T09:25:57;20.30;99.90
28520;DHT22;15732;48.534;20.382;2023-08-06T09:28:25;20.30;99.90
28520;DHT22;15732;48.534;20.382;2023-08-06T09:31:03;20.30;99.90
28520;DHT22;15732;48.534;20.382;2023-08-06T09:33:31;20.30;99.90
28520;DHT22;15732;48.534;20.382;2023-08-06T09:36:08;20.30;99.90
28520;DHT22;15732;48.534;20.382;2023-08-06T09:38:38;20.40;99.90
28520;DHT22;15732;48.534;20.382;2023-08-06T09:41:06;20.40;99.90
28520;DHT22;15732;48.534;20.382;2023-08-06T09:43:41;20.50;99.90
28520;DHT22;15732;48.534;20.382;2023-08-06T09:46:13;20.50;99.90
28520;DHT22;15732;48.534;20.382;2023-08-06T09:48:46;20.50;99.90
28520;DHT22;15732;48.534;20.382;2023-08-06T09:51:13;20.50;99.90
28520;DHT22;15732;48.534;20.382;2023-08-06T09:53:40;20.50;99.90
28520;DHT22;15732;48.534;20.382;2023-08-06T09:56:08;20.50;99.90
28520;DHT22;15732;48.534;20.382;2023-08-06T09:58:36;20.60;99.90
28520;DHT22;15732;48.534;20.382;2023-08-06T10:01:05;20.50;99.90
28520;DHT22;15732;48.534;20.382;2023-08-06T10:03:34;20.60;99.90
28520;DHT22;15732;48.534;20.382;2023-08-06T10:06:02;20.60;99.90
28520;DHT22;15732;48.534;20.382;2023-08-06T10:08:33;20.60;99.90
28520;DHT22;15732;48.534;20.382;2023-08-06T10:11:02;20.70;99.90
28520;DHT22;15732;48.534;20.382;2023-08-06T10:13:33;20.70;99.90
28520;DHT22;15732;48.534;20.382;2023-08-06T10:16:03;20.80;99.90
28520;DHT22;15732;48.534;20.382;2023-08-06T10:18:31;20.80;99.90
28520;DHT22;15732;48.534;20.382;2023-08-06T10:21:03;20.80;99.90
28520;DHT22;15732;48.534;20.382;2023-08-06T10:23:34;20.90;99.90
28520;DHT22;15732;48.534;20.382;2023-08-06T10:26:02;20.90;99.90
28520;DHT22;15732;48.534;20.382;2023-08-06T10:28:37;20.80;99.90
28520;DHT22;15732;48.534;20.382;2023-08-06T10:31:06;20.80;99.90
28520;DHT22;15732;48.534;20.382;2023-08-06T10:33:43;20.80;99.90
28520;DHT22;15732;48.534;20.382;2023-08-06T10:36:11;20.90;99.90
28520;DHT22;15732;48.534;20.382;2023-08-06T10:38:50;20.80;99.90
28520;DHT22;15732;48.534;20.382;2023-08-06T10:41:29;20.80;99.90
28520;DHT22;15732;48.534;20.382;2023-08-06T10:44:06;20.70;99.90
28520;DHT22;15732;48.534;20.382;2023-08-06T10:46:36;20.70;99.90
28520;DHT22;15732;48.534;20.382;2023-08-06T10:49:04;20.60;99.90
28520;DHT22;15732;48.534;20.382;2023-08-06T10:51:31;20.50;99.90
28520;DHT22;15732;48.534;20.382;2023-08-06T10:54:02;20.50;99.90
28520;DHT22;15732;48.534;20.382;2023-08-06T10:56:29;20.40;99.90
28520;DHT22;15732;48.534;20.382;2023-08-06T10:58:57;20.40;99.90
28520;DHT22;15732;48.534;20.382;2023-08-06T11:01:26;20.40;99.90
28520;DHT22;15732;48.534;20.382;2023-08-06T11:03:55;20.40;99.90
28520;DHT22;15732;48.534;20.382;2023-08-06T11:06:23;20.40;99.90
28520;DHT22;15732;48.534;20.382;2023-08-06T11:08:55;20.50;99.90
28520;DHT22;15732;48.534;20.382;2023-08-06T11:11:26;20.50;99.90
28520;DHT22;15732;48.534;20.382;2023-08-06T11:13:53;20.50;99.90
28520;DHT22;15732;48.534;20.382;2023-08-06T11:16:22;20.60;99.90
28520;DHT22;15732;48.534;20.382;2023-08-06T11:19:09;20.60;99.90
28520;DHT22;15732;48.534;20.382;2023-08-06T11:21:37;20.50;99.90
28520;DHT22;15732;48.534;20.382;2023-08-06T11:24:06;20.50;99.90
28520;DHT22;15732;48.534;20.382;2023-08-06T11:26:34;20.50;99.90
28520;DHT22;15732;48.534;20.382;2023-08-06T11:29:03;20.50;99.90
28520;DHT22;15732;48.534;20.382;2023-08-06T11:31:31;20.50;99.90
28520;DHT22;15732;48.534;20.382;2023-08-06T11:33:58;20.60;99.90
28520;DHT22;15732;48.534;20.382;2023-08-06T11:36:39;20.60;99.90
28520;DHT22;15732;48.534;20.382;2023-08-06T11:39:11;20.70;99.90
28520;DHT22;15732;48.534;20.382;2023-08-06T11:41:38;20.80;99.90
28520;DHT22;15732;48.534;20.382;2023-08-06T11:44:06;20.80;99.90
28520;DHT22;15732;48.534;20.382;2023-08-06T11:46:53;20.90;99.90
28520;DHT22;15732;48.534;20.382;2023-08-06T11:49:45;20.90;99.90
28520;DHT22;15732;48.534;20.382;2023-08-06T11:52:15;20.90;99.90
28520;DHT22;15732;48.534;20.382;2023-08-06T11:55:02;20.90;99.90
28520;DHT22;15732;48.534;20.382;2023-08-06T11:57:44;20.90;99.90
28520;DHT22;15732;48.534;20.382;2023-08-06T12:00:13;21.00;99.90
28520;DHT22;15732;48.534;20.382;2023-08-06T12:02:42;21.00;99.90
28520;DHT22;15732;48.534;20.382;2023-08-06T12:05:31;20.90;99.90
28520;DHT22;15732;48.534;20.382;2023-08-06T12:08:01;21.00;99.90
28520;DHT22;15732;48.534;20.382;2023-08-06T12:10:28;21.00;99.90
28520;DHT22;15732;48.534;20.382;2023-08-06T12:12:55;21.00;99.90
28520;DHT22;15732;48.534;20.382;2023-08-06T12:15:22;21.00;99.90
28520;DHT22;15732;48.534;20.382;2023-08-06T12:17:50;21.00;99.90
28520;DHT22;15732;48.534;20.382;2023-08-06T12:20:16;21.10;99.90
28520;DHT22;15732;48.534;20.382;2023-08-06T12:22:44;21.10;99.90
28520;DHT22;15732;48.534;20.382;2023-08-06T12:25:12;21.10;99.90
28520;DHT22;15732;48.534;20.382;2023-08-06T12:27:41;21.20;99.90
28520;DHT22;15732;48.534;20.382;2023-08-06T12:30:10;21.20;99.90
28520;DHT22;15732;48.534;20.382;2023-08-06T12:32:37;21.20;99.90
28520;DHT22;15732;48.534;20.382;2023-08-06T12:35:05;21.20;99.90
28520;DHT22;15732;48.534;20.382;2023-08-06T12:37:53;21.20;99.90
28520;DHT22;15732;48.534;20.382;2023-08-06T12:40:20;21.20;99.90
28520;DHT22;15732;48.534;20.382;2023-08-06T12:42:49;21.10;99.90
28520;DHT22;15732;48.534;20.382;2023-08-06T12:45:19;21.10;99.90
28520;DHT22;15732;48.534;20.382;2023-08-06T12:47:47;21.00;99.90
28520;DHT22;15732;48.534;20.382;2023-08-06T12:50:15;21.00;99.90
28520;DHT22;15732;48.534;20.382;2023-08-06T12:52:43;21.00;99.90
28520;DHT22;15732;48.534;20.382;2023-08-06T12:55:11;21.00;99.90
28520;DHT22;15732;48.534;20.382;2023-08-06T12:57:38;21.00;99.90
28520;DHT22;15732;48.534;20.382;2023-08-06T13:00:07;20.90;99.90
28520;DHT22;15732;48.534;20.382;2023-08-06T13:02:35;20.90;99.90
28520;DHT22;15732;48.534;20.382;2023-08-06T13:05:03;20.90;99.90
28520;DHT22;15732;48.534;20.382;2023-08-06T13:07:32;20.90;99.90
28520;DHT22;15732;48.534;20.382;2023-08-06T13:10:05;20.90;99.90
28520;DHT22;15732;48.534;20.382;2023-08-06T13:12:34;20.90;99.90
28520;DHT22;15732;48.534;20.382;2023-08-06T13:15:07;21.00;99.90
28520;DHT22;15732;48.534;20.382;2023-08-06T13:17:36;21.10;99.90
28520;DHT22;15732;48.534;20.382;2023-08-06T13:20:04;21.20;99.90
28520;DHT22;15732;48.534;20.382;2023-08-06T13:22:33;21.30;99.90
28520;DHT22;15732;48.534;20.382;2023-08-06T13:25:01;21.40;99.90
28520;DHT22;15732;48.534;20.382;2023-08-06T13:27:28;21.40;99.90
28520;DHT22;15732;48.534;20.382;2023-08-06T13:29:56;21.40;99.90
28520;DHT22;15732;48.534;20.382;2023-08-06T13:32:23;21.50;99.90
28520;DHT22;15732;48.534;20.382;2023-08-06T13:34:51;21.50;99.90
28520;DHT22;15732;48.534;20.382;2023-08-06T13:37:18;21.50;99.90
28520;DHT22;15732;48.534;20.382;2023-08-06T13:39:49;21.50;99.90
28520;DHT22;15732;48.534;20.382;2023-08-06T13:42:16;21.50;99.90
28520;DHT22;15732;48.534;20.382;2023-08-06T13:44:43;21.50;99.90
28520;DHT22;15732;48.534;20.382;2023-08-06T13:47:14;21.40;99.90
28520;DHT22;15732;48.534;20.382;2023-08-06T13:49:42;21.50;99.90
28520;DHT22;15732;48.534;20.382;2023-08-06T13:52:09;21.40;99.90
28520;DHT22;15732;48.534;20.382;2023-08-06T13:54:36;21.40;99.90
28520;DHT22;15732;48.534;20.382;2023-08-06T13:57:04;21.40;99.90
28520;DHT22;15732;48.534;20.382;2023-08-06T13:59:31;21.40;99.90
28520;DHT22;15732;48.534;20.382;2023-08-06T14:01:58;21.40;99.90
28520;DHT22;15732;48.534;20.382;2023-08-06T14:04:26;21.50;99.90
28520;DHT22;15732;48.534;20.382;2023-08-06T14:06:54;21.50;99.90
28520;DHT22;15732;48.534;20.382;2023-08-06T14:09:21;21.60;99.90
28520;DHT22;15732;48.534;20.382;2023-08-06T14:11:48;21.60;99.90
28520;DHT22;15732;48.534;20.382;2023-08-06T14:14:15;21.60;99.90
28520;DHT22;15732;48.534;20.382;2023-08-06T14:16:42;21.60;99.90
28520;DHT22;15732;48.534;20.382;2023-08-06T14:19:10;21.60;99.90
28520;DHT22;15732;48.534;20.382;2023-08-06T14:21:37;21.60;99.90
28520;DHT22;15732;48.534;20.382;2023-08-06T14:24:05;21.50;99.90
28520;DHT22;15732;48.534;20.382;2023-08-06T14:26:32;21.60;99.90
28520;DHT22;15732;48.534;20.382;2023-08-06T14:29:00;21.60;99.90
28520;DHT22;15732;48.534;20.382;2023-08-06T14:31:27;21.60;99.90
28520;DHT22;15732;48.534;20.382;2023-08-06T14:33:54;21.50;99.90
28520;DHT22;15732;48.534;20.382;2023-08-06T14:36:21;21.60;99.90
28520;DHT22;15732;48.534;20.382;2023-08-06T14:38:48;21.50;99.90
28520;DHT22;15732;48.534;20.382;2023-08-06T14:41:15;21.50;99.90
28520;DHT22;15732;48.534;20.382;2023-08-06T14:43:43;21.50;99.90
28520;DHT22;15732;48.534;20.382;2023-08-06T14:46:10;21.50;99.90
28520;DHT22;15732;48.534;20.382;2023-08-06T14:48:38;21.50;99.90
28520;DHT22;15732;48.534;20.382;2023-08-06T14:51:06;21.50;99.90
28520;DHT22;15732;48.534;20.382;2023-08-06T14:53:33;21.40;99.90
28520;DHT22;15732;48.534;20.382;2023-08-06T14:55:59;21.40;99.90
28520;DHT22;15732;48.534;20.382;2023-08-06T14:58:26;21.40;99.90
28520;DHT22;15732;48.534;20.382;2023-08-06T15:00:54;21.40;99.90
28520;DHT22;15732;48.534;20.382;2023-08-06T15:03:21;21.30;99.90
28520;DHT22;15732;48.534;20.382;2023-08-06T15:05:49;21.30;99.90
28520;DHT22;15732;48.534;20.382;2023-08-06T15:08:16;21.30;99.90
28520;DHT22;15732;48.534;20.382;2023-08-06T15:10:50;21.30;99.90
28520;DHT22;15732;48.534;20.382;2023-08-06T15:13:21;21.30;99.90
28520;DHT22;15732;48.534;20.382;2023-08-06T15:15:49;21.30;99.90
28520;DHT22;15732;48.534;20.382;2023-08-06T15:18:16;21.30;99.90
28520;DHT22;15732;48.534;20.382;2023-08-06T15:20:48;21.30;99.90
28520;DHT22;15732;48.534;20.382;2023-08-06T15:23:15;21.20;99.90
28520;DHT22;15732;48.534;20.382;2023-08-06T15:25:43;21.20;99.90
28520;DHT22;15732;48.534;20.382;2023-08-06T15:28:09;21.10;99.90
28520;DHT22;15732;48.534;20.382;2023-08-06T15:30:36;21.20;99.90
28520;DHT22;15732;48.534;20.382;2023-08-06T15:33:04;21.10;99.90
28520;DHT22;15732;48.534;20.382;2023-08-06T15:35:31;21.10;99.90
28520;DHT22;15732;48.534;20.382;2023-08-06T15:37:59;21.10;99.90
28520;DHT22;15732;48.534;20.382;2023-08-06T15:40:27;21.10;99.90